sensor_id;sensor_type;location;lat;lon;timestamp;pressure;altitude;pressure_sealevel;temperature;humidity
11085;BME280;5596;46.826;8.650;2022-10-16T00:01:34;96251.75;;;12.79;100.00
11085;BME280;5596;46.826;8.650;2022-10-16T00:04:02;96249.63;;;12.81;100.00
11085;BME280;5596;46.826;8.650;2022-10-16T00:06:30;96263.75;;;12.83;100.00
11085;BME280;5596;46.826;8.650;2022-10-16T00:08:58;96258.00;;;12.79;100.00
11085;BME280;5596;46.826;8.650;2022-10-16T00:11:26;96263.09;;;12.76;100.00
11085;BME280;5596;46.826;8.650;2022-10-16T00:13:56;96259.31;;;12.77;100.00
11085;BME280;5596;46.826;8.650;2022-10-16T00:16:24;96271.53;;;12.79;100.00
11085;BME280;5596;46.826;8.650;2022-10-16T00:18:53;96267.78;;;12.80;100.00
11085;BME280;5596;46.826;8.650;2022-10-16T00:21:23;96279.84;;;12.89;100.00
11085;BME280;5596;46.826;8.650;2022-10-16T00:23:51;96276.38;;;12.94;100.00
11085;BME280;5596;46.826;8.650;2022-10-16T00:26:18;96275.06;;;12.97;100.00
11085;BME280;5596;46.826;8.650;2022-10-16T00:28:46;96270.13;;;12.94;100.00
11085;BME280;5596;46.826;8.650;2022-10-16T00:31:14;96275.84;;;12.92;100.00
11085;BME280;5596;46.826;8.650;2022-10-16T00:33:41;96273.44;;;12.96;100.00
11085;BME280;5596;46.826;8.650;2022-10-16T00:36:12;96258.34;;;13.00;100.00
11085;BME280;5596;46.826;8.650;2022-10-16T00:38:40;96258.81;;;12.97;100.00
11085;BME280;5596;46.826;8.650;2022-10-16T00:41:11;96258.16;;;12.89;100.00
11085;BME280;5596;46.826;8.650;2022-10-16T00:43:40;96264.56;;;13.00;100.00
11085;BME280;5596;46.826;8.650;2022-10-16T00:46:15;96265.31;;;12.96;100.00
11085;BME280;5596;46.826;8.650;2022-10-16T00:48:48;96256.03;;;12.92;100.00
11085;BME280;5596;46.826;8.650;2022-10-16T00:51:19;96257.69;;;12.93;100.00
11085;BME280;5596;46.826;8.650;2022-10-16T00:53:48;96271.31;;;12.98;100.00
11085;BME280;5596;46.826;8.650;2022-10-16T00:56:16;96273.78;;;12.99;100.00
11085;BME280;5596;46.826;8.650;2022-10-16T00:58:44;96270.53;;;13.02;100.00
11085;BME280;5596;46.826;8.650;2022-10-16T01:01:11;96258.88;;;13.02;100.00
11085;BME280;5596;46.826;8.650;2022-10-16T01:03:38;96261.59;;;13.02;100.00
11085;BME280;5596;46.826;8.650;2022-10-16T01:06:13;96254.56;;;13.01;100.00
11085;BME280;5596;46.826;8.650;2022-10-16T01:08:54;96248.47;;;12.94;100.00
11085;BME280;5596;46.826;8.650;2022-10-16T01:11:30;96265.81;;;12.93;100.00
11085;BME280;5596;46.826;8.650;2022-10-16T01:14:03;96250.03;;;12.89;100.00
11085;BME280;5596;46.826;8.650;2022-10-16T01:16:35;96257.41;;;12.94;100.00
11085;BME280;5596;46.826;8.650;2022-10-16T01:19:09;96249.56;;;12.93;100.00
11085;BME280;5596;46.826;8.650;2022-10-16T01:21:41;96252.25;;;12.93;100.00
11085;BME280;5596;46.826;8.650;2022-10-16T01:24:17;96257.75;;;12.98;100.00
11085;BME280;5596;46.826;8.650;2022-10-16T01:27:09;96253.06;;;12.93;100.00
11085;BME280;5596;46.826;8.650;2022-10-16T01:29:41;96248.56;;;12.99;100.00
11085;BME280;5596;46.826;8.650;2022-10-16T01:32:23;96251.75;;;12.96;100.00
11085;BME280;5596;46.826;8.650;2022-10-16T01:34:54;96256.09;;;12.97;100.00
11085;BME280;5596;46.826;8.650;2022-10-16T01:37:32;96257.69;;;12.93;100.00
11085;BME280;5596;46.826;8.650;2022-10-16T01:40:02;96258.16;;;12.89;100.00
11085;BME280;5596;46.826;8.650;2022-10-16T01:42:35;96251.94;;;12.89;100.00
11085;BME280;5596;46.826;8.650;2022-10-16T01:45:05;96261.69;;;12.90;100.00
11085;BME280;5596;46.826;8.650;2022-10-16T01:47:35;96265.72;;;12.87;100.00
11085;BME280;5596;46.826;8.650;2022-10-16T01:50:07;96255.94;;;12.86;100.00
11085;BME280;5596;46.826;8.650;2022-10-16T01:52:37;96254.22;;;12.80;100.00
11085;BME280;5596;46.826;8.650;2022-10-16T01:55:06;96242.97;;;12.72;100.00
11085;BME280;5596;46.826;8.650;2022-10-16T01:57:39;96262.53;;;12.74;100.00
11085;BME280;5596;46.826;8.650;2022-10-16T02:00:12;96262.28;;;12.75;100.00
11085;BME280;5596;46.826;8.650;2022-10-16T02:02:42;96269.00;;;12.73;100.00
11085;BME280;5596;46.826;8.650;2022-10-16T02:05:16;96255.28;;;12.63;100.00
11085;BME280;5596;46.826;8.650;2022-10-16T02:07:45;96270.81;;;12.67;100.00
11085;BME280;5596;46.826;8.650;2022-10-16T02:10:13;96274.25;;;12.63;100.00
11085;BME280;5596;46.826;8.650;2022-10-16T02:12:44;96280.66;;;12.57;100.00
11085;BME280;5596;46.826;8.650;2022-10-16T02:15:13;96269.06;;;12.61;100.00
11085;BME280;5596;46.826;8.650;2022-10-16T02:17:40;96268.81;;;12.63;100.00
11085;BME280;5596;46.826;8.650;2022-10-16T02:20:08;96258.16;;;12.56;100.00
11085;BME280;5596;46.826;8.650;2022-10-16T02:22:38;96271.69;;;12.56;100.00
11085;BME280;5596;46.826;8.650;2022-10-16T02:25:09;96281.47;;;12.57;100.00
11085;BME280;5596;46.826;8.650;2022-10-16T02:27:42;96265.13;;;12.52;100.00
11085;BME280;5596;46.826;8.650;2022-10-16T02:30:18;96271.13;;;12.54;100.00
11085;BME280;5596;46.826;8.650;2022-10-16T02:32:48;96282.78;;;12.55;100.00
11085;BME280;5596;46.826;8.650;2022-10-16T02:35:18;96284.66;;;12.54;100.00
11085;BME280;5596;46.826;8.650;2022-10-16T02:37:47;96279.47;;;12.52;100.00
11085;BME280;5596;46.826;8.650;2022-10-16T02:40:15;96278.56;;;12.47;100.00
11085;BME280;5596;46.826;8.650;2022-10-16T02:42:44;96290.00;;;12.49;100.00
11085;BME280;5596;46.826;8.650;2022-10-16T02:45:11;96271.31;;;12.36;100.00
11085;BME280;5596;46.826;8.650;2022-10-16T02:47:38;96287.09;;;12.39;100.00
11085;BME280;5596;46.826;8.650;2022-10-16T02:50:06;96285.03;;;12.29;100.00
11085;BME280;5596;46.826;8.650;2022-10-16T02:52:33;96295.84;;;12.29;100.00
11085;BME280;5596;46.826;8.650;2022-10-16T02:55:01;96293.19;;;12.18;100.00
11085;BME280;5596;46.826;8.650;2022-10-16T02:57:28;96302.78;;;12.25;100.00
11085;BME280;5596;46.826;8.650;2022-10-16T02:59:56;96311.31;;;12.17;100.00
11085;BME280;5596;46.826;8.650;2022-10-16T03:02:24;96307.91;;;12.10;100.00
11085;BME280;5596;46.826;8.650;2022-10-16T03:04:51;96318.75;;;12.10;100.00
11085;BME280;5596;46.826;8.650;2022-10-16T03:07:18;96306.28;;;12.09;100.00
11085;BME280;5596;46.826;8.650;2022-10-16T03:09:45;96316.28;;;12.08;100.00
11085;BME280;5596;46.826;8.650;2022-10-16T03:12:13;96301.47;;;11.99;100.00
11085;BME280;5596;46.826;8.650;2022-10-16T03:14:40;96305.84;;;12.00;100.00
11085;BME280;5596;46.826;8.650;2022-10-16T03:17:08;96310.94;;;11.85;100.00
11085;BME280;5596;46.826;8.650;2022-10-16T03:19:35;96314.00;;;11.89;100.00
11085;BME280;5596;46.826;8.650;2022-10-16T03:22:03;96324.59;;;11.90;100.00
11085;BME280;5596;46.826;8.650;2022-10-16T03:24:31;96310.84;;;11.80;100.00
11085;BME280;5596;46.826;8.650;2022-10-16T03:26:59;96319.19;;;11.90;100.00
11085;BME280;5596;46.826;8.650;2022-10-16T03:29:26;96327.84;;;11.92;100.00
11085;BME280;5596;46.826;8.650;2022-10-16T03:31:55;96315.88;;;11.88;100.00
11085;BME280;5596;46.826;8.650;2022-10-16T03:34:23;96313.06;;;11.83;100.00
11085;BME280;5596;46.826;8.650;2022-10-16T03:36:51;96317.16;;;11.74;100.00
11085;BME280;5596;46.826;8.650;2022-10-16T03:39:18;96319.44;;;11.77;100.00
11085;BME280;5596;46.826;8.650;2022-10-16T03:41:46;96318.00;;;11.74;100.00
11085;BME280;5596;46.826;8.650;2022-10-16T03:44:13;96319.66;;;11.75;100.00
11085;BME280;5596;46.826;8.650;2022-10-16T03:46:40;96315.66;;;11.78;100.00
11085;BME280;5596;46.826;8.650;2022-10-16T03:49:07;96314.00;;;11.77;100.00
11085;BME280;5596;46.826;8.650;2022-10-16T03:51:36;96312.72;;;11.80;100.00
11085;BME280;5596;46.826;8.650;2022-10-16T03:54:03;96306.03;;;11.82;100.00
11085;BME280;5596;46.826;8.650;2022-10-16T03:56:30;96296.13;;;11.76;100.00
11085;BME280;5596;46.826;8.650;2022-10-16T03:58:57;96296.59;;;11.85;100.00
11085;BME280;5596;46.826;8.650;2022-10-16T04:01:24;96307.25;;;11.91;100.00
11085;BME280;5596;46.826;8.650;2022-10-16T04:03:51;96304.91;;;11.95;100.00
11085;BME280;5596;46.826;8.650;2022-10-16T04:06:18;96303.28;;;11.94;100.00
11085;BME280;5596;46.826;8.650;2022-10-16T04:08:47;96291.16;;;11.96;100.00
11085;BME280;5596;46.826;8.650;2022-10-16T04:11:15;96286.72;;;11.90;100.00
11085;BME280;5596;46.826;8.650;2022-10-16T04:13:42;96281.53;;;11.89;100.00
11085;BME280;5596;46.826;8.650;2022-10-16T04:16:09;96287.84;;;11.94;100.00
11085;BME280;5596;46.826;8.650;2022-10-16T04:18:36;96285.63;;;11.91;100.00
11085;BME280;5596;46.826;8.650;2022-10-16T04:21:04;96291.75;;;11.98;100.00
11085;BME280;5596;46.826;8.650;2022-10-16T04:23:32;96295.00;;;12.00;100.00
11085;BME280;5596;46.826;8.650;2022-10-16T04:26:01;96285.81;;;12.01;100.00
11085;BME280;5596;46.826;8.650;2022-10-16T04:28:29;96281.69;;;12.10;100.00
11085;BME280;5596;46.826;8.650;2022-10-16T04:30:56;96282.66;;;12.04;100.00
11085;BME280;5596;46.826;8.650;2022-10-16T04:33:23;96294.63;;;12.08;100.00
11085;BME280;5596;46.826;8.650;2022-10-16T04:35:56;96305.22;;;12.10;100.00
11085;BME280;5596;46.826;8.650;2022-10-16T04:38:23;96307.09;;;12.09;100.00
11085;BME280;5596;46.826;8.650;2022-10-16T04:40:50;96316.28;;;12.08;100.00
11085;BME280;5596;46.826;8.650;2022-10-16T04:43:19;96326.63;;;12.11;100.00
11085;BME280;5596;46.826;8.650;2022-10-16T04:45:46;96335.50;;;12.07;100.00
11085;BME280;5596;46.826;8.650;2022-10-16T04:48:13;96323.84;;;12.06;100.00
11085;BME280;5596;46.826;8.650;2022-10-16T04:50:41;96332.03;;;12.11;100.00
11085;BME280;5596;46.826;8.650;2022-10-16T04:53:08;96331.00;;;12.12;100.00
11085;BME280;5596;46.826;8.650;2022-10-16T04:55:35;96323.09;;;12.11;100.00
11085;BME280;5596;46.826;8.650;2022-10-16T04:58:02;96329.94;;;12.13;100.00
11085;BME280;5596;46.826;8.650;2022-10-16T05:00:31;96330.16;;;12.12;100.00
11085;BME280;5596;46.826;8.650;2022-10-16T05:02:58;96329.34;;;12.11;100.00
11085;BME280;5596;46.826;8.650;2022-10-16T05:05:26;96327.94;;;12.09;100.00
11085;BME280;5596;46.826;8.650;2022-10-16T05:07:53;96326.41;;;12.13;100.00
11085;BME280;5596;46.826;8.650;2022-10-16T05:10:20;96331.06;;;12.18;100.00
11085;BME280;5596;46.826;8.650;2022-10-16T05:12:47;96335.56;;;12.12;100.00
11085;BME280;5596;46.826;8.650;2022-10-16T05:15:15;96344.59;;;12.18;100.00
11085;BME280;5596;46.826;8.650;2022-10-16T05:17:44;96338.88;;;12.14;100.00
11085;BME280;5596;46.826;8.650;2022-10-16T05:20:12;96364.06;;;12.15;100.00
11085;BME280;5596;46.826;8.650;2022-10-16T05:22:39;96340.53;;;12.03;100.00
11085;BME280;5596;46.826;8.650;2022-10-16T05:25:06;96354.66;;;12.05;100.00
11085;BME280;5596;46.826;8.650;2022-10-16T05:27:33;96360.66;;;12.07;100.00
11085;BME280;5596;46.826;8.650;2022-10-16T05:30:04;96361.47;;;12.08;100.00
11085;BME280;5596;46.826;8.650;2022-10-16T05:32:31;96359.25;;;12.05;100.00
11085;BME280;5596;46.826;8.650;2022-10-16T05:34:59;96365.25;;;12.07;100.00
11085;BME280;5596;46.826;8.650;2022-10-16T05:37:27;96365.25;;;12.07;100.00
11085;BME280;5596;46.826;8.650;2022-10-16T05:39:54;96358.44;;;12.04;100.00
11085;BME280;5596;46.826;8.650;2022-10-16T05:42:21;96364.16;;;12.08;100.00
11085;BME280;5596;46.826;8.650;2022-10-16T05:44:48;96372.28;;;12.08;100.00
11085;BME280;5596;46.826;8.650;2022-10-16T05:47:15;96361.00;;;11.99;100.00
11085;BME280;5596;46.826;8.650;2022-10-16T05:49:42;96377.97;;;12.06;100.00
11085;BME280;5596;46.826;8.650;2022-10-16T05:52:10;96372.78;;;12.05;100.00
11085;BME280;5596;46.826;8.650;2022-10-16T05:54:38;96374.66;;;12.04;100.00
11085;BME280;5596;46.826;8.650;2022-10-16T05:57:07;96385.81;;;12.08;100.00
11085;BME280;5596;46.826;8.650;2022-10-16T05:59:35;96385.03;;;12.07;100.00
11085;BME280;5596;46.826;8.650;2022-10-16T06:02:02;96385.81;;;12.08;100.00
11085;BME280;5596;46.826;8.650;2022-10-16T06:04:29;96402.78;;;12.15;100.00
11085;BME280;5596;46.826;8.650;2022-10-16T06:06:58;96392.50;;;12.17;100.00
11085;BME280;5596;46.826;8.650;2022-10-16T06:09:29;96389.47;;;12.13;100.00
11085;BME280;5596;46.826;8.650;2022-10-16T06:11:56;96394.31;;;12.11;100.00
11085;BME280;5596;46.826;8.650;2022-10-16T06:14:24;96401.59;;;12.23;100.00
11085;BME280;5596;46.826;8.650;2022-10-16T06:16:51;96393.47;;;12.23;100.00
11085;BME280;5596;46.826;8.650;2022-10-16T06:19:18;96402.25;;;12.30;100.00
11085;BME280;5596;46.826;8.650;2022-10-16T06:21:45;96403.19;;;12.35;100.00
11085;BME280;5596;46.826;8.650;2022-10-16T06:24:12;96399.66;;;12.35;100.00
11085;BME280;5596;46.826;8.650;2022-10-16T06:26:40;96400.81;;;12.39;100.00
11085;BME280;5596;46.826;8.650;2022-10-16T06:29:08;96402.56;;;12.45;100.00
11085;BME280;5596;46.826;8.650;2022-10-16T06:31:35;96405.50;;;12.43;100.00
11085;BME280;5596;46.826;8.650;2022-10-16T06:34:02;96410.53;;;12.51;100.00
11085;BME280;5596;46.826;8.650;2022-10-16T06:36:31;96414.06;;;12.52;100.00
11085;BME280;5596;46.826;8.650;2022-10-16T06:38:58;96413.25;;;12.51;100.00
11085;BME280;5596;46.826;8.650;2022-10-16T06:41:25;96417.97;;;12.56;100.00
11085;BME280;5596;46.826;8.650;2022-10-16T06:43:54;96419.47;;;12.64;100.00
11085;BME280;5596;46.826;8.650;2022-10-16T06:46:23;96420.97;;;12.71;100.00
11085;BME280;5596;46.826;8.650;2022-10-16T06:48:51;96418.59;;;12.75;100.00
11085;BME280;5596;46.826;8.650;2022-10-16T06:51:19;96418.44;;;12.81;100.00
11085;BME280;5596;46.826;8.650;2022-10-16T06:53:48;96425.50;;;12.82;100.00
11085;BME280;5596;46.826;8.650;2022-10-16T06:56:17;96423.38;;;12.84;100.00
11085;BME280;5596;46.826;8.650;2022-10-16T06:58:45;96425.59;;;12.87;100.00
11085;BME280;5596;46.826;8.650;2022-10-16T07:01:17;96425.38;;;12.89;100.00
11085;BME280;5596;46.826;8.650;2022-10-16T07:03:45;96434.06;;;12.91;100.00
11085;BME280;5596;46.826;8.650;2022-10-16T07:06:14;96418.53;;;12.86;100.00
11085;BME280;5596;46.826;8.650;2022-10-16T07:08:44;96427.22;;;13.00;100.00
11085;BME280;5596;46.826;8.650;2022-10-16T07:11:14;96434.34;;;13.06;100.00
11085;BME280;5596;46.826;8.650;2022-10-16T07:13:42;96435.25;;;13.12;100.00
11085;BME280;5596;46.826;8.650;2022-10-16T07:16:12;96443.03;;;13.20;100.00
11085;BME280;5596;46.826;8.650;2022-10-16T07:18:41;96422.97;;;13.21;100.00
11085;BME280;5596;46.826;8.650;2022-10-16T07:21:12;96438.94;;;13.34;100.00
11085;BME280;5596;46.826;8.650;2022-10-16T07:23:40;96449.94;;;13.44;100.00
11085;BME280;5596;46.826;8.650;2022-10-16T07:26:08;96450.63;;;13.51;100.00
11085;BME280;5596;46.826;8.650;2022-10-16T07:28:37;96441.09;;;13.66;100.00
11085;BME280;5596;46.826;8.650;2022-10-16T07:31:06;96447.50;;;13.76;100.00
11085;BME280;5596;46.826;8.650;2022-10-16T07:33:34;96449.47;;;13.81;100.00
11085;BME280;5596;46.826;8.650;2022-10-16T07:36:03;96462.44;;;13.95;100.00
11085;BME280;5596;46.826;8.650;2022-10-16T07:38:31;96464.19;;;14.01;100.00
11085;BME280;5596;46.826;8.650;2022-10-16T07:40:59;96468.13;;;14.11;100.00
11085;BME280;5596;46.826;8.650;2022-10-16T07:43:26;96467.84;;;14.12;100.00
11085;BME280;5596;46.826;8.650;2022-10-16T07:45:54;96463.56;;;14.16;100.00
11085;BME280;5596;46.826;8.650;2022-10-16T07:48:22;96474.88;;;14.30;100.00
11085;BME280;5596;46.826;8.650;2022-10-16T07:50:50;96466.19;;;14.28;100.00
11085;BME280;5596;46.826;8.650;2022-10-16T07:53:18;96465.66;;;14.31;100.00
11085;BME280;5596;46.826;8.650;2022-10-16T07:55:45;96481.97;;;14.31;100.00
11085;BME280;5596;46.826;8.650;2022-10-16T07:58:12;96479.34;;;14.36;100.00
11085;BME280;5596;46.826;8.650;2022-10-16T08:00:39;96488.31;;;14.36;100.00
11085;BME280;5596;46.826;8.650;2022-10-16T08:03:08;96485.69;;;14.42;100.00
11085;BME280;5596;46.826;8.650;2022-10-16T08:05:35;96476.72;;;14.41;100.00
11085;BME280;5596;46.826;8.650;2022-10-16T08:08:02;96480.69;;;14.55;100.00
11085;BME280;5596;46.826;8.650;2022-10-16T08:10:31;96485.38;;;14.60;100.00
11085;BME280;5596;46.826;8.650;2022-10-16T08:12:58;96475.91;;;14.62;100.00
11085;BME280;5596;46.826;8.650;2022-10-16T08:15:26;96471.03;;;14.64;100.00
11085;BME280;5596;46.826;8.650;2022-10-16T08:17:57;96480.47;;;14.79;100.00
11085;BME280;5596;46.826;8.650;2022-10-16T08:20:25;96474.03;;;14.90;100.00
11085;BME280;5596;46.826;8.650;2022-10-16T08:22:52;96477.66;;;14.95;100.00
11085;BME280;5596;46.826;8.650;2022-10-16T08:25:20;96476.38;;;15.03;100.00
11085;BME280;5596;46.826;8.650;2022-10-16T08:27:49;96483.03;;;15.12;100.00
11085;BME280;5596;46.826;8.650;2022-10-16T08:30:17;96474.06;;;15.17;100.00
11085;BME280;5596;46.826;8.650;2022-10-16T08:32:44;96474.78;;;15.34;100.00
11085;BME280;5596;46.826;8.650;2022-10-16T08:35:12;96476.47;;;15.40;100.00
11085;BME280;5596;46.826;8.650;2022-10-16T08:37:39;96468.63;;;15.43;100.00
11085;BME280;5596;46.826;8.650;2022-10-16T08:40:15;96492.47;;;15.58;100.00
11085;BME280;5596;46.826;8.650;2022-10-16T08:42:58;96486.53;;;15.61;100.00
11085;BME280;5596;46.826;8.650;2022-10-16T08:45:40;96486.63;;;15.71;100.00
11085;BME280;5596;46.826;8.650;2022-10-16T08:48:19;96495.13;;;15.80;100.00
11085;BME280;5596;46.826;8.650;2022-10-16T08:50:49;96485.16;;;15.91;100.00
11085;BME280;5596;46.826;8.650;2022-10-16T08:53:22;96480.84;;;16.00;100.00
11085;BME280;5596;46.826;8.650;2022-10-16T08:55:52;96499.47;;;16.13;100.00
11085;BME280;5596;46.826;8.650;2022-10-16T08:58:23;96493.56;;;16.26;100.00
11085;BME280;5596;46.826;8.650;2022-10-16T09:00:54;96492.53;;;16.37;100.00
11085;BME280;5596;46.826;8.650;2022-10-16T09:03:31;96488.53;;;16.50;100.00
11085;BME280;5596;46.826;8.650;2022-10-16T09:06:10;96495.91;;;16.54;100.00
11085;BME280;5596;46.826;8.650;2022-10-16T09:08:51;96498.75;;;16.70;100.00
11085;BME280;5596;46.826;8.650;2022-10-16T09:11:32;96505.59;;;16.72;100.00
11085;BME280;5596;46.826;8.650;2022-10-16T09:14:15;96504.50;;;16.78;100.00
11085;BME280;5596;46.826;8.650;2022-10-16T09:16:52;96498.22;;;16.73;100.00
11085;BME280;5596;46.826;8.650;2022-10-16T09:19:29;96507.81;;;16.85;100.00
11085;BME280;5596;46.826;8.650;2022-10-16T09:22:00;96513.56;;;16.84;100.00
11085;BME280;5596;46.826;8.650;2022-10-16T09:24:30;96502.13;;;16.92;100.00
11085;BME280;5596;46.826;8.650;2022-10-16T09:26:57;96507.34;;;17.03;100.00
11085;BME280;5596;46.826;8.650;2022-10-16T09:29:25;96514.50;;;17.10;100.00
11085;BME280;5596;46.826;8.650;2022-10-16T09:31:53;96522.16;;;17.28;100.00
11085;BME280;5596;46.826;8.650;2022-10-16T09:34:27;96521.38;;;17.32;100.00
11085;BME280;5596;46.826;8.650;2022-10-16T09:36:57;96517.03;;;17.42;100.00
11085;BME280;5596;46.826;8.650;2022-10-16T09:39:25;96525.25;;;17.57;100.00
11085;BME280;5596;46.826;8.650;2022-10-16T09:41:53;96526.09;;;17.62;100.00
11085;BME280;5596;46.826;8.650;2022-10-16T09:44:23;96527.47;;;17.70;100.00
11085;BME280;5596;46.826;8.650;2022-10-16T09:47:03;96515.19;;;17.72;100.00
11085;BME280;5596;46.826;8.650;2022-10-16T09:49:30;96537.34;;;17.86;100.00
11085;BME280;5596;46.826;8.650;2022-10-16T09:52:05;96528.06;;;17.92;100.00
11085;BME280;5596;46.826;8.650;2022-10-16T09:54:33;96517.66;;;17.89;100.00
11085;BME280;5596;46.826;8.650;2022-10-16T09:57:07;96538.44;;;18.15;100.00
11085;BME280;5596;46.826;8.650;2022-10-16T09:59:46;96517.13;;;18.23;100.00
11085;BME280;5596;46.826;8.650;2022-10-16T10:02:16;96538.16;;;18.32;100.00
11085;BME280;5596;46.826;8.650;2022-10-16T10:04:48;96542.50;;;18.48;100.00
11085;BME280;5596;46.826;8.650;2022-10-16T10:07:18;96527.47;;;18.51;100.00
11085;BME280;5596;46.826;8.650;2022-10-16T10:09:47;96519.28;;;18.71;100.00
11085;BME280;5596;46.826;8.650;2022-10-16T10:12:18;96523.84;;;18.91;100.00
11085;BME280;5596;46.826;8.650;2022-10-16T10:14:47;96518.91;;;18.98;100.00
11085;BME280;5596;46.826;8.650;2022-10-16T10:17:19;96523.47;;;19.18;100.00
11085;BME280;5596;46.826;8.650;2022-10-16T10:19:49;96502.91;;;19.25;100.00
11085;BME280;5596;46.826;8.650;2022-10-16T10:22:23;96506.63;;;19.55;97.98
11085;BME280;5596;46.826;8.650;2022-10-16T10:25:12;96513.25;;;19.83;96.97
11085;BME280;5596;46.826;8.650;2022-10-16T10:27:55;96510.88;;;20.10;93.15
11085;BME280;5596;46.826;8.650;2022-10-16T10:30:27;96510.88;;;20.44;88.84
11085;BME280;5596;46.826;8.650;2022-10-16T10:33:12;96505.47;;;20.63;87.32
11085;BME280;5596;46.826;8.650;2022-10-16T10:35:46;96500.25;;;20.90;87.53
11085;BME280;5596;46.826;8.650;2022-10-16T10:38:27;96495.09;;;21.07;87.81
11085;BME280;5596;46.826;8.650;2022-10-16T10:41:09;96486.69;;;21.23;87.05
11085;BME280;5596;46.826;8.650;2022-10-16T10:43:48;96491.44;;;21.36;83.80
11085;BME280;5596;46.826;8.650;2022-10-16T10:46:25;96486.50;;;21.57;84.96
11085;BME280;5596;46.826;8.650;2022-10-16T10:49:07;96486.06;;;21.68;85.54
11085;BME280;5596;46.826;8.650;2022-10-16T10:51:43;96488.03;;;21.81;84.21
11085;BME280;5596;46.826;8.650;2022-10-16T10:54:17;96484.50;;;22.00;85.55
11085;BME280;5596;46.826;8.650;2022-10-16T10:56:57;96481.28;;;22.11;82.94
11085;BME280;5596;46.826;8.650;2022-10-16T10:59:43;96483.78;;;22.40;82.41
11085;BME280;5596;46.826;8.650;2022-10-16T11:02:21;96478.00;;;22.55;77.67
11085;BME280;5596;46.826;8.650;2022-10-16T11:07:50;96459.22;;;23.04;72.88
11085;BME280;5596;46.826;8.650;2022-10-16T11:10:22;96457.50;;;22.94;71.80
11085;BME280;5596;46.826;8.650;2022-10-16T11:12:55;96446.34;;;22.99;71.91
11085;BME280;5596;46.826;8.650;2022-10-16T11:15:28;96440.03;;;23.12;70.91
11085;BME280;5596;46.826;8.650;2022-10-16T11:18:02;96434.78;;;23.38;69.08
11085;BME280;5596;46.826;8.650;2022-10-16T11:20:37;96424.25;;;23.54;69.08
11085;BME280;5596;46.826;8.650;2022-10-16T11:23:11;96421.66;;;23.71;67.95
11085;BME280;5596;46.826;8.650;2022-10-16T11:25:43;96432.53;;;23.76;62.26
11085;BME280;5596;46.826;8.650;2022-10-16T11:28:13;96419.88;;;23.75;66.26
11085;BME280;5596;46.826;8.650;2022-10-16T11:30:44;96411.78;;;24.01;66.72
11085;BME280;5596;46.826;8.650;2022-10-16T11:33:25;96422.44;;;24.16;68.47
11085;BME280;5596;46.826;8.650;2022-10-16T11:36:09;96413.38;;;24.16;70.47
11085;BME280;5596;46.826;8.650;2022-10-16T11:38:43;96404.97;;;24.21;68.90
11085;BME280;5596;46.826;8.650;2022-10-16T11:41:17;96396.69;;;24.21;67.35
11085;BME280;5596;46.826;8.650;2022-10-16T11:43:51;96408.84;;;24.50;67.95
11085;BME280;5596;46.826;8.650;2022-10-16T11:46:21;96408.03;;;24.50;69.66
11085;BME280;5596;46.826;8.650;2022-10-16T11:48:59;96404.81;;;24.48;70.13
11085;BME280;5596;46.826;8.650;2022-10-16T11:51:34;96415.28;;;24.37;68.75
11085;BME280;5596;46.826;8.650;2022-10-16T11:54:10;96410.84;;;24.28;70.23
11085;BME280;5596;46.826;8.650;2022-10-16T11:56:41;96400.13;;;24.04;75.21
11085;BME280;5596;46.826;8.650;2022-10-16T11:59:15;96407.63;;;23.81;75.08
11085;BME280;5596;46.826;8.650;2022-10-16T12:01:49;96404.47;;;23.74;75.70
11085;BME280;5596;46.826;8.650;2022-10-16T12:04:23;96402.34;;;23.71;74.60
11085;BME280;5596;46.826;8.650;2022-10-16T12:06:57;96409.72;;;23.62;73.99
11085;BME280;5596;46.826;8.650;2022-10-16T12:09:28;96394.31;;;23.61;74.92
11085;BME280;5596;46.826;8.650;2022-10-16T12:11:56;96400.34;;;23.85;72.08
11085;BME280;5596;46.826;8.650;2022-10-16T12:14:36;96394.81;;;23.85;70.76
11085;BME280;5596;46.826;8.650;2022-10-16T12:17:23;96394.78;;;24.07;69.01
11085;BME280;5596;46.826;8.650;2022-10-16T12:19:58;96399.47;;;24.21;68.21
11085;BME280;5596;46.826;8.650;2022-10-16T12:22:29;96393.72;;;24.17;69.09
11085;BME280;5596;46.826;8.650;2022-10-16T12:24:57;96389.91;;;24.27;69.12
11085;BME280;5596;46.826;8.650;2022-10-16T12:27:29;96383.09;;;24.24;68.63
11085;BME280;5596;46.826;8.650;2022-10-16T12:29:58;96377.94;;;24.31;69.69
11085;BME280;5596;46.826;8.650;2022-10-16T12:32:30;96376.88;;;24.49;69.71
11085;BME280;5596;46.826;8.650;2022-10-16T12:34:59;96381.09;;;24.47;70.81
11085;BME280;5596;46.826;8.650;2022-10-16T12:37:32;96371.66;;;24.39;70.07
11085;BME280;5596;46.826;8.650;2022-10-16T12:40:11;96369.34;;;24.33;69.85
11085;BME280;5596;46.826;8.650;2022-10-16T12:42:40;96367.91;;;24.44;68.09
11085;BME280;5596;46.826;8.650;2022-10-16T12:45:24;96372.72;;;24.30;69.53
11085;BME280;5596;46.826;8.650;2022-10-16T12:47:54;96365.41;;;24.03;69.07
11085;BME280;5596;46.826;8.650;2022-10-16T12:50:28;96372.19;;;23.97;70.95
11085;BME280;5596;46.826;8.650;2022-10-16T12:52:59;96365.78;;;24.10;69.25
11085;BME280;5596;46.826;8.650;2022-10-16T12:55:32;96368.66;;;24.27;69.52
11085;BME280;5596;46.826;8.650;2022-10-16T12:58:16;96371.75;;;24.03;66.84
11085;BME280;5596;46.826;8.650;2022-10-16T13:00:53;96368.00;;;23.77;67.75
11085;BME280;5596;46.826;8.650;2022-10-16T13:03:43;96377.72;;;23.74;70.74
11085;BME280;5596;46.826;8.650;2022-10-16T13:06:22;96378.22;;;23.76;70.94
11085;BME280;5596;46.826;8.650;2022-10-16T13:12:05;96385.66;;;23.54;71.10
11085;BME280;5596;46.826;8.650;2022-10-16T13:15:16;96388.13;;;23.55;70.31
11085;BME280;5596;46.826;8.650;2022-10-16T13:17:54;96385.13;;;23.29;71.08
11085;BME280;5596;46.826;8.650;2022-10-16T13:20:31;96396.94;;;23.30;71.71
11085;BME280;5596;46.826;8.650;2022-10-16T13:23:08;96387.56;;;23.17;71.87
11085;BME280;5596;46.826;8.650;2022-10-16T13:26:00;96393.09;;;23.17;71.92
11085;BME280;5596;46.826;8.650;2022-10-16T13:28:33;96398.59;;;23.17;69.44